Latest Weather Observations for Kingscote

IDS60801

Issued at 11:31 pm CST Sunday 19 April 2015 (issued every 30 minutes, with the page automatically refreshed every 10 minutes)

About weather observations | Map of weather stations | Latest weather observations for SA | Other Formats
Station Details ID: 022841 Name: KINGSCOTE AERO Lat: -35.71 Lon: 137.52 Height: 6.23 m
Data from the previous 72 hours. | See also: Recent months at Kingscote
Date/Time
CST
Temp
°C
App
Temp
°C
Dew
Point
Rel
Hum
%
Delta-T
°C
Wind Press
QNH
hPa
Press
MSL
hPa
Rain
since 9 am
mm
Dir
 
Spd
km/h
Gust
km/h
Spd
kts
Gust
kts
19/11:30pm 7.9 4.8 5.7 86 1.0 SW 11 13 6 7 1038.1 1038.1 0.0
19/11:00pm 7.7 5.2 4.8 82 1.3 SW 7 9 4 5 1038.3 1038.3 0.0
19/10:30pm 9.0 6.8 6.1 82 1.3 SSW 7 11 4 6 1038.4 1038.4 0.0
19/10:00pm 8.5 6.3 5.4 81 1.4 SSW 6 7 3 4 1038.4 1038.4 0.0
19/09:30pm 7.8 5.1 5.6 86 1.0 SSW 9 11 5 6 1038.1 1038.1 0.0
19/09:00pm 7.1 4.5 4.2 82 1.2 SSW 7 9 4 5 1037.9 1037.9 0.0
19/08:30pm 7.5 4.2 4.3 80 1.4 SSW 11 11 6 6 1037.5 1037.5 0.0
19/08:00pm 7.1 3.7 3.9 80 1.4 SW 11 13 6 7 1037.1 1037.1 0.0
19/07:30pm 7.8 5.1 3.8 76 1.7 SSW 7 9 4 5 1036.9 1036.9 0.0
19/07:00pm 9.4 6.8 4.2 70 2.3 S 7 7 4 4 1036.7 1036.7 0.0
19/06:30pm 10.6 7.1 3.6 62 3.0 SSE 11 13 6 7 1036.3 1036.3 0.0
19/06:00pm 11.8 7.6 3.6 57 3.6 SSE 15 22 8 12 1036.1 1036.1 0.0
19/05:30pm 12.9 8.0 4.3 56 3.9 SSE 19 30 10 16 1035.5 1035.5 0.0
19/05:00pm 13.5 7.6 4.1 53 4.3 SSE 24 32 13 17 1035.3 1035.3 0.0
19/04:30pm 14.2 8.1 4.8 53 4.3 SE 26 33 14 18 1035.1 1035.1 0.0
19/04:00pm 14.5 7.7 5.0 53 4.4 SE 30 43 16 23 1035.1 1035.1 0.0
19/03:30pm 14.7 9.0 4.7 51 4.6 SSE 24 35 13 19 1035.0 1035.0 0.0
19/03:00pm 14.3 7.7 4.0 50 4.7 SSE 28 37 15 20 1034.7 1034.7 0.0
19/02:30pm 14.9 8.2 3.7 47 5.1 SE 28 39 15 21 1034.4 1034.4 0.0
19/02:00pm 14.5 8.2 3.9 49 4.8 SSE 26 35 14 19 1034.4 1034.4 0.0
19/01:30pm 15.2 8.9 4.0 47 5.1 SSE 26 37 14 20 1034.3 1034.3 0.0
19/01:00pm 15.5 8.8 3.9 46 5.3 SSE 28 39 15 21 1034.2 1034.2 0.0
19/12:30pm 15.7 8.6 3.5 44 5.5 SE 30 43 16 23 1034.3 1034.3 0.0
19/12:00pm 15.0 7.7 4.4 49 4.9 SSE 32 41 17 22 1034.3 1034.3 0.0
19/11:30am 15.4 8.2 4.8 49 4.9 SSE 32 43 17 23 1034.4 1034.4 0.0
19/11:00am 15.1 7.8 5.3 52 4.6 SSE 33 44 18 24 1034.3 1034.3 0.0
19/10:30am 15.0 8.9 6.8 58 4.0 S 28 37 15 20 1034.1 1034.1 0.0
19/10:00am 14.9 8.9 5.4 53 4.5 SSE 26 39 14 21 1034.0 1034.0 0.0
19/09:30am 13.6 7.3 5.7 59 3.7 SSE 28 39 15 21 1033.9 1033.9 0.0
19/09:27am 13.4 7.1 5.8 60 3.6 SSE 28 39 15 21 1033.9 1033.9 0.0
19/09:00am 11.8 7.9 6.9 72 2.3 SSE 17 20 9 11 1033.6 1033.6 5.0
19/08:30am 12.8 8.5 7.0 68 2.8 S 19 24 10 13 1033.1 1033.1 4.8
19/08:00am 11.7 7.0 5.1 64 3.0 SSW 19 24 10 13 1032.4 1032.4 4.8
19/07:30am 8.8 4.7 4.6 75 1.8 S 15 20 8 11 1031.6 1031.6 4.8
19/07:00am 8.4 4.4 5.0 79 1.5 SSW 15 17 8 9 1030.9 1030.9 4.8
19/06:30am 9.0 5.1 5.4 78 1.6 SSW 15 17 8 9 1030.3 1030.3 4.8
19/06:00am 9.3 5.1 5.5 77 1.7 S 17 20 9 11 1029.8 1029.8 4.8
19/05:30am 10.2 5.1 6.2 76 1.8 SSW 22 28 12 15 1029.4 1029.4 4.8
19/05:00am 9.5 5.1 6.4 81 1.4 SSW 19 24 10 13 1028.8 1028.8 4.8
19/04:30am 9.4 4.7 5.9 79 1.6 SSW 20 28 11 15 1028.6 1028.6 4.8
19/04:00am 8.9 4.9 5.1 77 1.7 SSW 15 20 8 11 1028.0 1028.0 4.8
19/03:30am 9.1 5.6 5.5 78 1.6 S 13 17 7 9 1027.6 1027.6 4.8
19/03:00am 10.0 6.2 6.0 76 1.8 SSW 15 19 8 10 1027.5 1027.5 4.8
19/02:30am 8.8 6.0 6.8 87 0.9 SW 11 13 6 7 1027.4 1027.4 4.8
19/02:00am 9.4 6.6 6.8 84 1.2 SW 11 17 6 9 1027.3 1027.3 4.8
19/01:30am 8.7 6.1 6.3 85 1.1 SW 9 11 5 6 1027.3 1027.3 4.6
19/01:00am 9.1 6.0 7.1 87 0.9 SW 13 22 7 12 1026.8 1026.8 4.6
19/12:30am 9.9 5.7 7.5 85 1.1 S 19 35 10 19 1026.6 1026.6 4.6
19/12:00am 8.9 6.5 6.9 87 0.9 SSW 9 13 5 7 1026.3 1026.3 4.6
 
Date/Time
CST
Temp
°C
App
Temp
°C
Dew
Point
Rel
Hum
%
Delta-T
°C
Wind Press
QNH
hPa
Press
MSL
hPa
Rain
since 9 am
mm
Dir
 
Spd
km/h
Gust
km/h
Spd
kts
Gust
kts
18/11:30pm 10.5 6.2 7.7 83 1.3 S 20 26 11 14 1026.0 1026.0 4.6
18/11:00pm 8.6 6.1 6.6 87 0.9 WSW 9 13 5 7 1025.6 1025.6 4.4
18/10:30pm 9.6 7.6 6.9 83 1.3 SW 7 9 4 5 1025.3 1025.3 4.4
18/10:00pm 10.2 7.4 7.1 81 1.5 SSW 11 15 6 8 1025.1 1025.1 4.4
18/09:30pm 10.3 7.3 7.5 83 1.3 SSW 13 17 7 9 1024.7 1024.7 4.4
18/09:00pm 10.3 7.1 6.8 79 1.6 SSW 13 15 7 8 1024.2 1024.2 4.4
18/08:30pm 11.0 8.8 7.7 80 1.6 SSW 9 11 5 6 1023.6 1023.6 4.4
18/08:00pm 12.5 8.4 7.8 73 2.3 SSW 19 28 10 15 1023.1 1023.1 4.4
18/07:30pm 12.3 8.8 7.4 72 2.4 SSW 15 19 8 10 1022.5 1022.5 4.4
18/07:00pm 12.5 8.1 7.6 72 2.4 SW 20 26 11 14 1021.9 1021.9 4.4
18/06:30pm 12.7 8.6 7.8 72 2.4 SW 19 24 10 13 1021.2 1021.2 4.4
18/06:00pm 12.9 9.6 8.2 73 2.3 SSW 15 20 8 11 1020.4 1020.4 4.4
18/05:30pm 14.1 9.1 8.1 67 3.0 SSW 24 37 13 20 1019.6 1019.6 4.4
18/05:00pm 14.5 9.1 8.2 66 3.2 SSW 26 35 14 19 1019.2 1019.2 4.4
18/04:30pm 14.7 11.3 11.3 80 1.8 SW 20 26 11 14 1018.6 1018.6 4.4
18/04:00pm 13.7 11.1 11.9 89 1.0 SW 17 20 9 11 1018.3 1018.3 4.4
18/03:30pm 13.0 9.3 11.4 90 0.8 SW 22 33 12 18 1018.3 1018.3 4.4
18/03:00pm 13.2 9.2 11.8 91 0.7 SSW 24 33 13 18 1017.9 1017.9 4.0
18/02:30pm 13.8 8.7 12.0 89 1.0 SSW 30 39 16 21 1017.4 1017.4 3.6
18/02:00pm 14.2 9.6 12.4 89 1.0 SSW 28 46 15 25 1017.0 1017.0 3.6
18/01:59pm 14.2 9.6 12.4 89 1.0 SSW 28 39 15 21 1017.0 1017.0 3.6
18/01:47pm 13.8 8.4 12.2 90 0.9 SSW 32 43 17 23 1017.0 1017.0 3.6
18/01:33pm 13.7 8.4 12.6 93 0.6 SSW 32 43 17 23 1017.1 1017.1 3.6
18/01:32pm 13.7 8.8 12.6 93 0.6 SSW 30 43 16 23 1017.0 1017.0 3.6
18/01:30pm 14.0 9.2 12.9 93 0.6 SSW 30 39 16 21 1017.0 1017.0 3.6
18/01:08pm 14.1 9.6 12.7 91 0.8 SW 28 41 15 22 1016.9 1016.9 3.6
18/01:00pm 14.3 9.0 13.2 93 0.6 SSW 33 44 18 24 1016.9 1016.9 3.6
18/12:46pm 14.4 9.4 13.4 94 0.6 SSW 32 44 17 24 1016.7 1016.7 3.4
18/12:34pm 14.8 11.1 14.0 95 0.4 SW 26 35 14 19 1016.5 1016.5 3.4
18/12:30pm 14.8 10.7 13.8 94 0.6 SW 28 41 15 22 1016.5 1016.5 3.2
18/12:25pm 14.8 9.5 13.0 89 1.0 SW 33 48 18 26 1016.7 1016.7 2.2
18/12:18pm 17.0 10.9 11.7 71 2.9 W 35 48 19 26 1016.2 1016.2 0.0
18/12:00pm 19.8 15.6 14.6 72 3.0 WNW 30 39 16 21 1015.7 1015.7 0.0
18/11:34am 18.9 13.6 12.6 67 3.5 WNW 32 54 17 29 1015.7 1015.7 0.0
18/11:30am 19.0 14.4 13.4 70 3.2 WNW 30 43 16 23 1015.7 1015.7 0.0
18/11:00am 19.4 14.8 13.6 69 3.3 WNW 30 41 16 22 1016.0 1016.0 0.0
18/10:30am 19.2 14.4 14.5 74 2.7 W 33 41 18 22 1016.1 1016.1 0.0
18/10:00am 17.8 14.4 13.7 77 2.3 WNW 24 35 13 19 1016.2 1016.2 0.0
18/09:30am 17.0 13.7 14.1 83 1.6 NW 24 32 13 17 1016.4 1016.4 0.0
18/09:00am 17.0 15.0 15.0 88 1.2 W 19 32 10 17 1016.4 1016.4 2.4
18/08:30am 15.9 14.8 14.4 91 0.9 W 13 20 7 11 1016.3 1016.3 2.4
18/08:00am 15.3 13.3 13.8 91 0.8 NW 17 22 9 12 1016.0 1016.0 2.2
18/07:30am 14.8 12.7 13.5 92 0.7 NW 17 22 9 12 1015.7 1015.7 2.2
18/07:00am 13.7 12.1 12.8 94 0.5 NW 13 17 7 9 1015.6 1015.6 2.2
18/06:34am 13.9 11.5 12.8 93 0.6 NW 17 20 9 11 1015.6 1015.6 2.2
18/06:30am 14.0 11.7 12.9 93 0.6 NW 17 24 9 13 1015.6 1015.6 2.2
18/06:16am 14.0 11.2 12.6 91 0.8 NW 19 24 10 13 1015.7 1015.7 2.0
18/06:00am 14.0 12.2 12.0 88 1.1 NW 13 17 7 9 1015.4 1015.4 2.0
18/05:57am 14.1 12.3 12.1 88 1.1 NNW 13 20 7 11 1015.3 1015.3 2.0
18/05:30am 9.1 7.1 8.8 98 0.1 NW 9 15 5 8 1015.6 1015.6 2.0
18/05:00am 6.4 5.4 5.8 96 0.3 CALM 0 0 0 0 1015.5 1015.5 2.0
18/04:30am 6.8 5.9 6.2 96 0.3 CALM 0 0 0 0 1015.3 1015.3 2.0
18/04:00am 7.1 6.3 6.4 95 0.3 CALM 0 0 0 0 1015.2 1015.2 1.8
18/03:30am 8.1 7.5 7.3 95 0.4 CALM 0 0 0 0 1015.3 1015.3 1.8
18/03:00am 8.4 7.8 7.3 93 0.5 CALM 0 0 0 0 1015.5 1015.5 1.8
18/02:30am 9.4 7.3 8.3 93 0.5 NW 9 11 5 6 1015.8 1015.8 1.8
18/02:00am 9.1 6.9 7.9 92 0.6 WNW 9 11 5 6 1016.2 1016.2 1.8
18/01:30am 10.0 7.6 8.6 91 0.7 WNW 11 11 6 6 1016.3 1016.3 1.8
18/01:00am 11.0 8.5 9.6 91 0.7 W 13 15 7 8 1016.4 1016.4 1.8
18/12:30am 11.6 9.9 10.0 90 0.8 W 9 11 5 6 1016.6 1016.6 1.8
18/12:00am 13.1 12.0 11.8 92 0.7 WNW 9 11 5 6 1017.0 1017.0 1.8
 
Date/Time
CST
Temp
°C
App
Temp
°C
Dew
Point
Rel
Hum
%
Delta-T
°C
Wind Press
QNH
hPa
Press
MSL
hPa
Rain
since 9 am
mm
Dir
 
Spd
km/h
Gust
km/h
Spd
kts
Gust
kts
17/11:30pm 13.2 12.5 12.1 93 0.6 WNW 7 9 4 5 1017.2 1017.2 1.8
17/11:00pm 13.4 12.9 12.5 94 0.5 NW 7 11 4 6 1017.6 1017.6 1.8
17/10:30pm 13.5 14.3 12.6 94 0.5 CALM 0 0 0 0 1017.9 1017.9 1.8
17/10:00pm 13.4 12.9 12.6 95 0.4 SW 7 11 4 6 1018.0 1018.0 1.8
17/09:45pm 13.4 12.5 12.6 95 0.4 SW 9 13 5 7 1018.1 1018.1 1.8
17/09:30pm 13.5 12.2 12.6 94 0.5 SW 11 15 6 8 1018.1 1018.1 1.8
17/09:10pm 13.5 11.9 12.7 95 0.4 SW 13 17 7 9 1018.1 1018.1 1.8
17/09:00pm 13.6 12.8 12.8 95 0.4 WSW 9 9 5 5 1018.0 1018.0 1.8
17/08:30pm 13.5 13.2 12.7 95 0.4 WSW 6 7 3 4 1017.7 1017.7 1.8
17/08:00pm 13.5 13.0 12.7 95 0.4 WSW 7 9 4 5 1017.7 1017.7 1.8
17/07:30pm 13.5 13.0 12.7 95 0.4 SW 7 7 4 4 1017.4 1017.4 1.8
17/07:00pm 13.4 12.5 12.6 95 0.4 SW 9 11 5 6 1017.4 1017.4 1.8
17/06:30pm 13.3 12.4 12.5 95 0.4 SW 9 11 5 6 1017.2 1017.2 1.8
17/06:00pm 13.4 12.5 12.5 94 0.5 SSE 9 11 5 6 1017.0 1017.0 1.8
17/05:35pm 13.7 12.8 12.6 93 0.6 ESE 9 13 5 7 1016.9 1016.9 1.8
17/05:30pm 13.6 12.3 12.5 93 0.6 ESE 11 13 6 7 1016.7 1016.7 1.8
17/05:00pm 13.8 11.5 12.9 94 0.5 SSW 17 22 9 12 1017.0 1017.0 1.8
17/04:48pm 14.0 11.7 13.1 94 0.5 S 17 20 9 11 1016.9 1016.9 1.8
17/04:30pm 14.0 11.4 13.1 94 0.5 S 19 20 10 11 1016.8 1016.8 1.8
17/04:10pm 14.2 11.6 13.2 94 0.6 S 19 24 10 13 1016.8 1016.8 1.8
17/04:06pm 14.1 11.9 13.3 95 0.4 S 17 22 9 12 1016.8 1016.8 1.8
17/04:00pm 14.0 12.2 13.2 95 0.4 SSW 15 22 8 12 1016.8 1016.8 1.8
17/03:58pm 14.1 12.3 13.3 95 0.4 SSW 15 20 8 11 1016.8 1016.8 1.8
17/03:42pm 13.9 11.3 13.1 95 0.4 S 19 24 10 13 1016.9 1016.9 1.6
17/03:30pm 13.8 11.5 12.9 94 0.5 S 17 24 9 13 1016.9 1016.9 1.6
17/03:00pm 14.5 14.3 13.0 91 0.8 SE 6 7 3 4 1017.0 1017.0 1.0
17/02:42pm 14.6 14.1 12.5 87 1.1 ESE 7 9 4 5 1017.1 1017.1 1.0
17/02:30pm 14.9 14.0 12.6 86 1.3 ENE 9 11 5 6 1017.1 1017.1 1.0
17/02:00pm 14.7 13.0 12.4 86 1.3 ENE 13 17 7 9 1017.4 1017.4 1.0
17/01:30pm 14.9 12.1 12.6 86 1.3 ENE 19 24 10 13 1017.6 1017.6 1.0
17/01:00pm 14.8 11.9 12.8 88 1.1 E 20 24 11 13 1018.1 1018.1 1.0
17/12:30pm 15.0 12.1 13.0 88 1.1 ESE 20 26 11 14 1018.8 1018.8 1.0
17/12:00pm 14.8 12.2 13.3 91 0.8 ESE 19 24 10 13 1019.6 1019.6 1.0
17/11:54am 14.8 12.0 13.3 91 0.8 ESE 20 28 11 15 1019.7 1019.7 1.0
17/11:33am 14.4 12.2 13.3 93 0.6 ESE 17 20 9 11 1020.2 1020.2 0.8
17/11:30am 14.3 12.1 13.2 93 0.6 ESE 17 20 9 11 1020.2 1020.2 0.8
17/11:00am 13.9 11.1 12.6 92 0.7 ESE 19 24 10 13 1020.7 1020.7 0.2
17/10:52am 13.8 11.0 12.5 92 0.7 ESE 19 24 10 13 1020.8 1020.8 0.2
17/10:35am 13.7 10.6 12.3 91 0.8 E 20 26 11 14 1021.0 1021.0 0.0
17/10:34am 13.8 10.8 12.4 91 0.8 E 20 26 11 14 1021.0 1021.0 0.0
17/10:33am 13.9 10.9 12.5 91 0.8 E 20 26 11 14 1021.0 1021.0 0.0
17/10:30am 13.9 10.8 12.1 89 1.0 ESE 20 26 11 14 1021.1 1021.1 0.0
17/10:21am 14.3 10.8 12.2 87 1.1 ESE 22 30 12 16 1021.1 1021.1 0.0
17/10:00am 14.7 11.7 12.6 87 1.1 SE 20 26 11 14 1021.2 1021.2 0.0
17/09:30am 14.2 11.6 12.1 87 1.1 SE 17 24 9 13 1021.6 1021.6 0.0
17/09:00am 13.8 11.6 12.2 90 0.9 SE 15 20 8 11 1021.8 1021.8 1.2
17/08:30am 13.8 11.6 12.2 90 0.9 SE 15 19 8 10 1022.0 1022.0 1.2
17/08:00am 13.9 11.6 11.9 88 1.1 SE 15 20 8 11 1021.9 1021.9 1.0
17/07:30am 14.0 11.8 12.0 88 1.1 SE 15 20 8 11 1021.4 1021.4 1.0
17/07:00am 14.0 11.8 12.2 89 1.0 SE 15 17 8 9 1021.2 1021.2 1.0
17/06:30am 13.7 12.8 12.6 93 0.6 SE 9 13 5 7 1021.1 1021.1 1.0
17/06:00am 13.3 12.3 12.4 94 0.5 SSE 9 11 5 6 1021.0 1021.0 1.0
17/05:30am 13.2 12.8 12.3 94 0.5 SSE 6 7 3 4 1021.6 1021.6 0.8
17/05:00am 13.2 12.6 12.3 94 0.5 SSE 7 9 4 5 1021.8 1021.8 0.8
17/04:30am 13.2 12.2 12.3 94 0.5 S 9 11 5 6 1021.8 1021.8 0.8
17/04:00am 13.1 12.1 12.2 94 0.5 SSE 9 11 5 6 1021.9 1021.9 0.8
17/03:30am 12.9 11.4 11.8 93 0.6 SSE 11 13 6 7 1021.9 1021.9 0.8
17/03:00am 13.1 11.6 12.0 93 0.6 S 11 13 6 7 1022.5 1022.5 0.8
17/02:30am 12.9 11.8 11.8 93 0.6 SSE 9 11 5 6 1022.7 1022.7 0.6
17/02:00am 13.0 11.4 11.7 92 0.7 SSE 11 11 6 6 1022.9 1022.9 0.6
17/01:30am 13.1 11.5 11.5 90 0.8 SE 11 13 6 7 1023.1 1023.1 0.4
17/01:00am 13.2 12.0 11.6 90 0.9 SE 9 11 5 6 1023.5 1023.5 0.2
17/12:30am 13.4 11.8 11.5 88 1.0 ESE 11 13 6 7 1023.6 1023.6 0.0
17/12:00am 13.8 11.8 11.5 86 1.2 ESE 13 17 7 9 1023.9 1023.9 0.0

Other Formats:

Comma delimited format used in spreadsheet applications
http://www.bom.gov.au/fwo/IDS60801/IDS60801.95807.axf

JavaScript Object Notation format (JSON) in row-major order
http://www.bom.gov.au/fwo/IDS60801/IDS60801.95807.json